Time;durP1;ratioP1;P1;durP2;ratioP2;P2;SDS_P1;SDS_P2;PMS_P1;PMS_P2;Temp;Humidity;BMP_temperature;BMP_pressure;BME280_temperature;BME280_humidity;BME280_pressure;Samples;Min_cycle;Max_cycle;Signal;HPM_P1;HPM_P2
2021/09/22 00:00:58;;;;;;;;;;;;;;;11.22;86.34;102958.25;5050788;28;19924;-49
2021/09/22 00:03:24;;;;;;;;;;;;;;;11.16;86.95;102959.31;5066156;28;20398;-41
2021/09/22 00:05:52;;;;;;;;;;;;;;;11.14;87.44;102958.50;5066051;28;19929;-44
2021/09/22 00:08:18;;;;;;;;;;;;;;;11.15;87.76;102954.09;5065772;28;19925;-46
2021/09/22 00:10:45;;;;;;;;;;;;;;;11.23;87.29;102953.84;5051126;28;19928;-44
2021/09/22 00:13:12;;;;;;;;;;;;;;;11.14;87.01;102955.03;5064522;28;19924;-45
2021/09/22 00:15:38;;;;;;;;;;;;;;;11.11;86.94;102955.09;5050696;28;20303;-42
2021/09/22 00:18:05;;;;;;;;;;;;;;;11.11;86.40;102958.63;5051043;28;20368;-44
2021/09/22 00:20:32;;;;;;;;;;;;;;;11.16;86.61;102946.13;5050355;28;19928;-42
2021/09/22 00:23:01;;;;;;;;;;;;;;;11.06;86.54;102951.78;5050513;28;19925;-43
2021/09/22 00:25:32;;;;;;;;;;;;;;;11.01;86.18;102945.81;5050457;28;20399;-42
2021/09/22 00:28:00;;;;;;;;;;;;;;;10.94;87.16;102950.44;5048349;28;19924;-43
2021/09/22 00:30:27;;;;;;;;;;;;;;;10.94;87.22;102946.00;5048532;28;19979;-43
2021/09/22 00:32:53;;;;;;;;;;;;;;;10.88;87.96;102940.97;5049242;28;19925;-42
2021/09/22 00:35:20;;;;;;;;;;;;;;;10.89;87.62;102942.66;5049898;28;19955;-42
2021/09/22 00:37:47;;;;;;;;;;;;;;;10.86;88.05;102932.25;5065260;28;19925;-43
2021/09/22 00:40:13;;;;;;;;;;;;;;;10.91;88.06;102938.22;5048079;28;19929;-44
2021/09/22 00:42:40;;;;;;;;;;;;;;;10.84;88.42;102934.06;5058300;28;19933;-43
2021/09/22 00:45:12;;;;;;;;;;;;;;;10.85;87.93;102940.19;5049210;28;20287;-45
2021/09/22 00:47:39;;;;;;;;;;;;;;;10.91;86.99;102940.00;5065660;28;19932;-41
2021/09/22 00:50:06;;;;;;;;;;;;;;;10.88;87.16;102945.34;5050581;28;19971;-43
2021/09/22 00:52:33;;;;;;;;;;;;;;;10.85;87.27;102941.03;5049650;28;19929;-43
2021/09/22 00:54:59;;;;;;;;;;;;;;;10.78;87.32;102944.78;5048980;28;19929;-42
2021/09/22 00:57:26;;;;;;;;;;;;;;;10.90;86.84;102941.75;5048714;28;20189;-44
2021/09/22 00:59:52;;;;;;;;;;;;;;;10.74;87.70;102943.16;5065171;28;19943;-42
2021/09/22 01:02:19;;;;;;;;;;;;;;;10.71;87.57;102944.13;5050205;28;20287;-44
2021/09/22 01:04:47;;;;;;;;;;;;;;;10.77;87.55;102946.56;5049003;28;20008;-41
2021/09/22 01:07:14;;;;;;;;;;;;;;;10.84;86.78;102939.34;5049685;28;19925;-41
2021/09/22 01:09:41;;;;;;;;;;;;;;;10.70;87.85;102936.28;5050253;28;19932;-42
2021/09/22 01:12:08;;;;;;;;;;;;;;;10.56;87.74;102934.09;5048443;28;20241;-42
2021/09/22 01:14:35;;;;;;;;;;;;;;;10.67;88.14;102929.34;5048762;28;19947;-42
2021/09/22 01:17:01;;;;;;;;;;;;;;;10.56;88.03;102927.06;5050247;28;19928;-42
2021/09/22 01:19:28;;;;;;;;;;;;;;;10.54;87.99;102915.75;5048649;28;19928;-42
2021/09/22 01:21:56;;;;;;;;;;;;;;;10.67;87.91;102923.25;5048219;28;19952;-52
2021/09/22 01:24:23;;;;;;;;;;;;;;;10.64;87.99;102921.56;5065329;28;20554;-50
2021/09/22 01:26:50;;;;;;;;;;;;;;;10.54;87.68;102921.00;5063377;28;20379;-52
2021/09/22 01:29:17;;;;;;;;;;;;;;;10.46;88.58;102918.59;5064890;28;19925;-43
2021/09/22 01:31:44;;;;;;;;;;;;;;;10.49;89.23;102915.03;5049566;28;19932;-41
2021/09/22 01:34:11;;;;;;;;;;;;;;;10.58;87.98;102916.47;5065364;28;19929;-43
2021/09/22 01:36:38;;;;;;;;;;;;;;;10.54;87.99;102915.75;5064798;28;19933;-42
2021/09/22 01:39:05;;;;;;;;;;;;;;;10.45;88.99;102906.34;5050150;28;19932;-43
2021/09/22 01:41:31;;;;;;;;;;;;;;;10.48;88.66;102911.53;5062864;28;19929;-49
2021/09/22 01:43:59;;;;;;;;;;;;;;;10.48;89.38;102911.53;5049731;28;19951;-44
2021/09/22 01:46:25;;;;;;;;;;;;;;;10.46;88.33;102910.72;5049487;28;19932;-42
2021/09/22 01:48:52;;;;;;;;;;;;;;;10.42;88.26;102909.09;5049265;28;19925;-52
2021/09/22 01:51:19;;;;;;;;;;;;;;;10.42;88.07;102906.47;5048931;28;20387;-43
2021/09/22 01:53:45;;;;;;;;;;;;;;;10.36;88.46;102911.06;5050521;28;19941;-43
2021/09/22 01:56:12;;;;;;;;;;;;;;;10.28;88.93;102898.97;5051731;28;19950;-42
2021/09/22 01:58:38;;;;;;;;;;;;;;;10.28;88.79;102909.50;5052503;28;20319;-41
2021/09/22 02:01:08;;;;;;;;;;;;;;;10.32;89.16;102911.13;5053316;28;20670;-43
2021/09/22 02:03:37;;;;;;;;;;;;;;;10.39;88.20;102910.94;5053096;28;19932;-43
2021/09/22 02:06:04;;;;;;;;;;;;;;;10.24;88.94;102913.13;5052706;28;19974;-53
2021/09/22 02:08:32;;;;;;;;;;;;;;;10.22;89.32;102917.56;5052967;28;19929;-41
2021/09/22 02:10:59;;;;;;;;;;;;;;;10.17;88.99;102911.59;5051777;28;19971;-44
2021/09/22 02:13:25;;;;;;;;;;;;;;;10.17;89.29;102913.34;5067722;28;19925;-43
2021/09/22 02:15:52;;;;;;;;;;;;;;;10.15;89.66;102903.75;5053347;28;19970;-52
2021/09/22 02:18:19;;;;;;;;;;;;;;;10.09;89.82;102905.69;5052517;28;20639;-50
2021/09/22 02:20:45;;;;;;;;;;;;;;;10.06;89.16;102908.41;5052945;28;19951;-52
2021/09/22 02:23:12;;;;;;;;;;;;;;;10.21;89.92;102905.34;5052487;28;20258;-50
2021/09/22 02:25:38;;;;;;;;;;;;;;;10.12;88.87;102905.63;5053118;28;19925;-51
2021/09/22 02:28:05;;;;;;;;;;;;;;;10.12;89.68;102900.38;5050251;28;19928;-44
2021/09/22 02:30:32;;;;;;;;;;;;;;;10.15;90.16;102893.22;5053045;28;19974;-53
2021/09/22 02:32:58;;;;;;;;;;;;;;;10.07;89.98;102903.13;5052554;28;19924;-43
2021/09/22 02:35:25;;;;;;;;;;;;;;;10.04;90.25;102895.31;5052259;28;19929;-54
2021/09/22 02:37:52;;;;;;;;;;;;;;;10.04;91.08;102899.75;5052201;28;20011;-53
2021/09/22 02:40:18;;;;;;;;;;;;;;;10.09;89.25;102887.28;5051969;28;19960;-53
2021/09/22 02:42:46;;;;;;;;;;;;;;;10.06;88.38;102898.78;5050267;28;19928;-50
2021/09/22 02:45:13;;;;;;;;;;;;;;;10.05;89.77;102896.16;5051757;28;19990;-53
2021/09/22 02:47:40;;;;;;;;;;;;;;;10.03;89.94;102892.75;5067204;28;19924;-53
2021/09/22 02:50:07;;;;;;;;;;;;;;;10.01;89.06;102884.91;5067535;28;20295;-53
2021/09/22 02:52:33;;;;;;;;;;;;;;;9.98;89.42;102890.28;5051673;28;19964;-51
2021/09/22 02:55:00;;;;;;;;;;;;;;;9.92;89.13;102886.03;5051840;28;19932;-49
2021/09/22 02:57:27;;;;;;;;;;;;;;;9.89;89.64;102880.03;5050328;28;19932;-48
2021/09/22 02:59:53;;;;;;;;;;;;;;;9.84;90.35;102874.88;5052582;28;19952;-48
2021/09/22 03:02:20;;;;;;;;;;;;;;;9.80;91.08;102881.13;5051883;28;19936;-48
2021/09/22 03:04:47;;;;;;;;;;;;;;;9.78;91.41;102880.34;5052452;28;19938;-49
2021/09/22 03:07:14;;;;;;;;;;;;;;;9.88;90.68;102876.50;5050631;28;19924;-53
2021/09/22 03:09:40;;;;;;;;;;;;;;;9.83;91.22;102867.94;5052538;28;19959;-49
2021/09/22 03:12:07;;;;;;;;;;;;;;;9.87;90.33;102872.19;5050733;28;19979;-42
2021/09/22 03:14:33;;;;;;;;;;;;;;;9.88;89.67;102873.03;5051692;28;20395;-50
2021/09/22 03:17:00;;;;;;;;;;;;;;;9.84;89.50;102872.25;5052179;28;20450;-47
2021/09/22 03:19:26;;;;;;;;;;;;;;;9.88;89.21;102866.00;5067400;28;19928;-48
2021/09/22 03:21:53;;;;;;;;;;;;;;;9.97;89.45;102868.34;5033839;28;20027;-47
2021/09/22 03:24:20;;;;;;;;;;;;;;;9.89;88.62;102864.25;5051678;28;19925;-50
2021/09/22 03:26:46;;;;;;;;;;;;;;;9.85;89.06;102878.41;5050140;28;19932;-50
2021/09/22 03:29:13;;;;;;;;;;;;;;;9.83;90.36;102878.44;5052005;28;19924;-48
2021/09/22 03:31:42;;;;;;;;;;;;;;;9.81;90.20;102873.22;5051360;28;19932;-49
2021/09/22 03:34:09;;;;;;;;;;;;;;;9.88;88.83;102873.88;5051961;28;19925;-49
2021/09/22 03:36:35;;;;;;;;;;;;;;;9.86;89.72;102870.47;5051258;28;20439;-52
2021/09/22 03:39:02;;;;;;;;;;;;;;;9.84;89.63;102867.00;5052219;28;19932;-48
2021/09/22 03:41:29;;;;;;;;;;;;;;;9.76;90.53;102869.00;5064794;28;19924;-50
2021/09/22 03:43:56;;;;;;;;;;;;;;;9.64;89.83;102871.09;5051405;28;19925;-48
2021/09/22 03:46:22;;;;;;;;;;;;;;;9.59;90.18;102872.97;5051343;28;19975;-50
2021/09/22 03:48:49;;;;;;;;;;;;;;;9.62;91.53;102875.50;5051616;28;19951;-52
2021/09/22 03:51:16;;;;;;;;;;;;;;;9.60;91.47;102876.50;5051211;28;20661;-54
2021/09/22 03:53:42;;;;;;;;;;;;;;;9.68;89.88;102873.63;5051088;28;19979;-49
2021/09/22 03:56:09;;;;;;;;;;;;;;;9.69;90.08;102877.97;5050162;28;19929;-52
2021/09/22 03:58:36;;;;;;;;;;;;;;;9.59;90.08;102880.88;5050093;28;19978;-43
2021/09/22 04:01:02;;;;;;;;;;;;;;;9.68;89.62;102879.75;5066503;28;19929;-45
2021/09/22 04:03:30;;;;;;;;;;;;;;;9.64;91.04;102876.34;5065950;28;19929;-43
2021/09/22 04:05:57;;;;;;;;;;;;;;;9.62;90.23;102869.41;5051404;28;20367;-43
2021/09/22 04:08:23;;;;;;;;;;;;;;;9.64;90.34;102875.50;5051074;28;19928;-42
2021/09/22 04:10:50;;;;;;;;;;;;;;;9.59;90.75;102870.34;5050139;28;19925;-43
2021/09/22 04:13:16;;;;;;;;;;;;;;;9.59;90.47;102862.47;5048624;28;20388;-52
2021/09/22 04:15:43;;;;;;;;;;;;;;;9.62;89.60;102862.38;5050794;28;19974;-50
2021/09/22 04:18:10;;;;;;;;;;;;;;;9.63;90.44;102860.63;5050136;28;20011;-50
2021/09/22 04:20:37;;;;;;;;;;;;;;;9.54;90.68;102861.75;5051350;28;20022;-47
2021/09/22 04:23:03;;;;;;;;;;;;;;;9.55;92.02;102865.25;5050407;28;20039;-42
2021/09/22 04:25:30;;;;;;;;;;;;;;;9.50;91.91;102867.13;5050640;28;20390;-44
2021/09/22 04:27:57;;;;;;;;;;;;;;;9.51;90.31;102855.72;5049053;28;20030;-42
2021/09/22 04:30:23;;;;;;;;;;;;;;;9.53;91.29;102861.78;5065727;28;20339;-43
2021/09/22 04:32:50;;;;;;;;;;;;;;;9.44;91.44;102855.88;5050783;28;19990;-42
2021/09/22 04:35:17;;;;;;;;;;;;;;;9.45;92.86;102860.25;5049014;28;19932;-41
2021/09/22 04:37:44;;;;;;;;;;;;;;;9.41;92.33;102866.50;5065557;28;19929;-47
2021/09/22 04:40:11;;;;;;;;;;;;;;;9.40;91.96;102870.00;5050578;28;19948;-43
2021/09/22 04:42:38;;;;;;;;;;;;;;;9.52;90.90;102871.44;5048840;28;19964;-40
2021/09/22 04:45:05;;;;;;;;;;;;;;;9.51;91.00;102882.00;5050237;28;20292;-42
2021/09/22 04:47:32;;;;;;;;;;;;;;;9.39;90.72;102881.41;5065860;28;19928;-41
2021/09/22 04:49:59;;;;;;;;;;;;;;;9.44;91.96;102894.44;5050827;28;19978;-42
2021/09/22 04:52:26;;;;;;;;;;;;;;;9.49;90.62;102889.94;5048584;28;20996;-42
2021/09/22 04:54:52;;;;;;;;;;;;;;;9.50;90.46;102898.66;5050339;28;19947;-41
2021/09/22 04:57:19;;;;;;;;;;;;;;;9.46;90.46;102903.13;5048790;28;20449;-42
2021/09/22 04:59:46;;;;;;;;;;;;;;;9.43;90.32;102904.06;5050384;28;19933;-49
2021/09/22 05:02:12;;;;;;;;;;;;;;;9.39;91.02;102901.56;5049809;28;19929;-51
2021/09/22 05:04:39;;;;;;;;;;;;;;;9.43;91.13;102903.22;5050224;28;19932;-43
2021/09/22 05:07:06;;;;;;;;;;;;;;;9.40;90.55;102909.41;5049671;28;20357;-42
2021/09/22 05:09:33;;;;;;;;;;;;;;;9.35;90.86;102905.19;5048898;28;19931;-43
2021/09/22 05:12:00;;;;;;;;;;;;;;;9.37;90.57;102911.28;5048693;28;19944;-43
2021/09/22 05:14:27;;;;;;;;;;;;;;;9.36;91.24;102913.03;5049490;28;19928;-43
2021/09/22 05:16:54;;;;;;;;;;;;;;;9.32;90.72;102915.78;5050081;28;19978;-54
2021/09/22 05:19:20;;;;;;;;;;;;;;;9.31;91.01;102917.53;5050384;28;20388;-48
2021/09/22 05:21:47;;;;;;;;;;;;;;;9.23;91.27;102917.75;5049213;28;19931;-49
2021/09/22 05:24:14;;;;;;;;;;;;;;;9.21;91.65;102927.41;5065272;28;19932;-50
2021/09/22 05:26:40;;;;;;;;;;;;;;;9.15;91.66;102922.34;5063812;28;19963;-48
2021/09/22 05:29:07;;;;;;;;;;;;;;;9.19;91.77;102918.75;5049473;28;19925;-49
2021/09/22 05:31:34;;;;;;;;;;;;;;;9.12;91.96;102925.91;5052412;28;19991;-48
2021/09/22 05:34:00;;;;;;;;;;;;;;;9.21;91.54;102923.94;5054203;28;19931;-51
2021/09/22 05:36:27;;;;;;;;;;;;;;;9.24;91.45;102919.50;5068645;28;19978;-47
2021/09/22 05:38:53;;;;;;;;;;;;;;;9.21;91.32;102922.16;5053848;28;19979;-52
2021/09/22 05:41:20;;;;;;;;;;;;;;;9.27;91.51;102924.66;5050543;28;19933;-51
2021/09/22 05:43:47;;;;;;;;;;;;;;;9.26;91.17;102915.03;5053674;28;19924;-47
2021/09/22 05:46:13;;;;;;;;;;;;;;;9.17;90.89;102915.28;5053132;28;20335;-52
2021/09/22 05:48:40;;;;;;;;;;;;;;;9.18;91.08;102929.28;5053500;28;19970;-49
2021/09/22 05:51:07;;;;;;;;;;;;;;;9.22;91.16;102928.31;5053231;28;20921;-50
2021/09/22 05:53:33;;;;;;;;;;;;;;;9.20;91.43;102922.22;5053376;28;19931;-50
2021/09/22 05:56:00;;;;;;;;;;;;;;;9.25;91.45;102915.09;5052544;28;19925;-50
2021/09/22 05:58:30;;;;;;;;;;;;;;;9.25;91.30;102918.56;5053271;28;19925;-51
2021/09/22 06:00:59;;;;;;;;;;;;;;;9.26;91.95;102917.66;5053554;28;20395;-52
2021/09/22 06:03:25;;;;;;;;;;;;;;;9.23;91.61;102920.38;5052991;28;19974;-52
2021/09/22 06:05:53;;;;;;;;;;;;;;;9.28;91.17;102926.38;5053765;28;19932;-45
2021/09/22 06:08:19;;;;;;;;;;;;;;;9.38;91.70;102924.38;5052940;28;19955;-44
2021/09/22 06:10:46;;;;;;;;;;;;;;;9.43;91.21;102913.72;5069104;28;20683;-43
2021/09/22 06:13:13;;;;;;;;;;;;;;;9.41;90.88;102910.28;5050048;28;19925;-43
2021/09/22 06:15:40;;;;;;;;;;;;;;;9.53;91.28;102917.84;5053317;28;19925;-46
2021/09/22 06:18:07;;;;;;;;;;;;;;;9.47;91.64;102915.34;5051744;28;19925;-44
2021/09/22 06:20:33;;;;;;;;;;;;;;;9.43;91.58;102913.72;5052726;28;19925;-41
2021/09/22 06:23:00;;;;;;;;;;;;;;;9.44;92.05;102920.69;5051908;28;19956;-42
2021/09/22 06:25:26;;;;;;;;;;;;;;;9.48;92.46;102922.34;5051018;28;19929;-42
2021/09/22 06:27:53;;;;;;;;;;;;;;;9.55;92.95;102925.66;5051679;28;19932;-42
2021/09/22 06:30:20;;;;;;;;;;;;;;;9.53;93.62;102925.72;5052856;28;19929;-42
2021/09/22 06:32:46;;;;;;;;;;;;;;;9.58;94.38;102931.66;5052440;28;19925;-41
2021/09/22 06:35:13;;;;;;;;;;;;;;;9.59;93.78;102937.81;5052806;28;19932;-43
2021/09/22 06:37:40;;;;;;;;;;;;;;;9.65;93.85;102935.00;5052319;28;20648;-43
2021/09/22 06:40:07;;;;;;;;;;;;;;;9.79;94.39;102937.25;5052477;28;19932;-41
2021/09/22 06:42:33;;;;;;;;;;;;;;;9.82;94.93;102942.41;5050868;28;19924;-41
2021/09/22 06:45:00;;;;;;;;;;;;;;;9.83;94.69;102944.16;5052224;28;19925;-43
2021/09/22 06:47:27;;;;;;;;;;;;;;;9.97;95.35;102947.22;5052248;28;19928;-43
2021/09/22 06:49:53;;;;;;;;;;;;;;;10.09;95.49;102947.75;5052820;28;19979;-42
2021/09/22 06:52:21;;;;;;;;;;;;;;;10.10;95.30;102946.84;5051810;28;20379;-44
2021/09/22 06:54:48;;;;;;;;;;;;;;;10.11;96.00;102949.44;5052206;28;19932;-46
2021/09/22 06:57:14;;;;;;;;;;;;;;;10.19;95.47;102940.47;5049332;28;20595;-50
2021/09/22 06:59:41;;;;;;;;;;;;;;;10.32;96.54;102947.94;5049718;28;20024;-49
2021/09/22 07:02:08;;;;;;;;;;;;;;;10.49;95.89;102943.97;5050683;28;19990;-42
2021/09/22 07:04:35;;;;;;;;;;;;;;;10.52;96.52;102951.75;5050671;28;19925;-48
2021/09/22 07:07:02;;;;;;;;;;;;;;;10.58;97.02;102942.78;5050747;28;19935;-50
2021/09/22 07:09:28;;;;;;;;;;;;;;;10.72;96.59;102945.84;5051644;28;20399;-42
2021/09/22 07:11:55;;;;;;;;;;;;;;;10.77;96.64;102949.22;5050136;28;19925;-43
2021/09/22 07:14:22;;;;;;;;;;;;;;;10.76;97.14;102946.63;5050577;28;19978;-44
2021/09/22 07:16:49;;;;;;;;;;;;;;;10.81;97.20;102950.81;5051178;28;19925;-43
2021/09/22 07:19:16;;;;;;;;;;;;;;;10.89;97.07;102947.06;5066715;28;20724;-41
2021/09/22 07:21:42;;;;;;;;;;;;;;;11.01;97.32;102953.72;5049760;28;20023;-41
2021/09/22 07:24:09;;;;;;;;;;;;;;;11.12;97.87;102949.78;5049861;28;19929;-43
2021/09/22 07:26:36;;;;;;;;;;;;;;;11.28;97.91;102952.75;5049423;28;19925;-43
2021/09/22 07:29:02;;;;;;;;;;;;;;;11.38;97.83;102952.44;5051621;28;19947;-42
2021/09/22 07:31:29;;;;;;;;;;;;;;;11.47;97.39;102960.03;5065626;28;19928;-42
2021/09/22 07:33:56;;;;;;;;;;;;;;;11.57;96.74;102956.13;5051273;28;20016;-42
2021/09/22 07:36:23;;;;;;;;;;;;;;;11.75;96.78;102959.03;5049889;28;19932;-43
2021/09/22 07:38:49;;;;;;;;;;;;;;;11.96;96.02;102966.19;5065420;28;19925;-44
2021/09/22 07:41:16;;;;;;;;;;;;;;;12.23;95.11;102962.56;5048659;28;19928;-43
2021/09/22 07:43:43;;;;;;;;;;;;;;;12.29;95.28;102951.78;5049754;28;20338;-41
2021/09/22 07:46:10;;;;;;;;;;;;;;;12.37;94.18;102952.34;5049617;28;19975;-43
2021/09/22 07:48:36;;;;;;;;;;;;;;;12.45;93.14;102950.25;5066821;28;20071;-42
2021/09/22 07:51:03;;;;;;;;;;;;;;;12.78;93.00;102955.09;5050331;28;19951;-42
2021/09/22 07:53:30;;;;;;;;;;;;;;;12.96;91.88;102947.31;5049866;28;20416;-41
2021/09/22 07:55:57;;;;;;;;;;;;;;;13.20;91.06;102942.78;5049093;28;19974;-45
2021/09/22 07:58:23;;;;;;;;;;;;;;;13.34;89.84;102940.38;5049117;28;20732;-43
2021/09/22 08:00:50;;;;;;;;;;;;;;;13.50;88.90;102939.78;5050281;28;19925;-43
2021/09/22 08:03:17;;;;;;;;;;;;;;;13.61;88.81;102937.50;5065307;28;20705;-42
2021/09/22 08:05:44;;;;;;;;;;;;;;;13.87;87.46;102938.09;5050817;28;19931;-49
2021/09/22 08:08:11;;;;;;;;;;;;;;;14.09;86.21;102937.13;5050154;28;20004;-51
2021/09/22 08:10:37;;;;;;;;;;;;;;;14.03;85.98;102931.16;5050199;28;19929;-49
2021/09/22 08:13:04;;;;;;;;;;;;;;;14.14;86.38;102922.72;5049145;28;20380;-42
2021/09/22 08:15:31;;;;;;;;;;;;;;;14.19;85.74;102922.50;5049504;28;20010;-44
2021/09/22 08:17:58;;;;;;;;;;;;;;;14.31;86.30;102926.34;5065454;28;19925;-42
2021/09/22 08:20:24;;;;;;;;;;;;;;;14.53;84.42;102921.75;5049949;28;20399;-41
2021/09/22 08:22:51;;;;;;;;;;;;;;;14.39;82.91;102926.84;5048536;28;19928;-46
2021/09/22 08:25:19;;;;;;;;;;;;;;;14.64;82.92;102923.91;5049684;28;19924;-46
2021/09/22 08:27:46;;;;;;;;;;;;;;;14.95;82.84;102919.69;5049040;28;19933;-45
2021/09/22 08:30:13;;;;;;;;;;;;;;;15.10;83.77;102922.50;5049345;28;19955;-47
2021/09/22 08:32:39;;;;;;;;;;;;;;;15.33;80.80;102932.75;5065105;28;20416;-43
2021/09/22 08:35:07;;;;;;;;;;;;;;;15.38;80.97;102929.88;5049525;28;19925;-42
2021/09/22 08:37:33;;;;;;;;;;;;;;;15.59;78.98;102924.38;5048968;28;20019;-41
2021/09/22 08:40:00;;;;;;;;;;;;;;;15.89;78.83;102924.53;5049825;28;19971;-44
2021/09/22 08:42:27;;;;;;;;;;;;;;;16.06;77.23;102915.66;5047813;28;19929;-42
2021/09/22 08:44:53;;;;;;;;;;;;;;;16.20;76.03;102917.53;5049504;28;19932;-41
2021/09/22 08:47:20;;;;;;;;;;;;;;;16.35;74.51;102918.47;5064972;28;19987;-46
2021/09/22 08:49:48;;;;;;;;;;;;;;;16.35;72.74;102915.81;5049795;28;19952;-44
2021/09/22 08:52:15;;;;;;;;;;;;;;;16.48;73.60;102902.66;5064339;28;20443;-42
2021/09/22 08:54:42;;;;;;;;;;;;;;;16.48;73.27;102905.31;5049318;28;20027;-40
2021/09/22 08:57:09;;;;;;;;;;;;;;;16.45;72.26;102900.19;5048353;28;19932;-43
2021/09/22 08:59:36;;;;;;;;;;;;;;;16.64;71.88;102897.31;5049254;28;19928;-44
2021/09/22 09:02:05;;;;;;;;;;;;;;;16.81;71.18;102901.63;5049619;28;20396;-43
2021/09/22 09:04:33;;;;;;;;;;;;;;;17.01;71.64;102903.97;5049460;28;19928;-43
2021/09/22 09:06:59;;;;;;;;;;;;;;;17.19;70.52;102901.16;5047357;28;20342;-51
2021/09/22 09:09:39;;;;;;;;;;;;;;;17.26;69.80;102901.66;5049041;28;19933;-49
2021/09/22 09:12:19;;;;;;;;;;;;;;;17.40;69.81;102899.84;5063413;28;19931;-51
2021/09/22 09:14:51;;;;;;;;;;;;;;;17.61;69.71;102906.59;5048858;28;19932;-48
2021/09/22 09:17:33;;;;;;;;;;;;;;;17.88;68.44;102896.00;5064208;28;20422;-52
2021/09/22 09:20:00;;;;;;;;;;;;;;;18.21;66.22;102894.81;5049401;28;19928;-51
2021/09/22 09:22:26;;;;;;;;;;;;;;;18.37;64.23;102889.34;5048294;28;19929;-48
2021/09/22 09:24:54;;;;;;;;;;;;;;;18.43;63.41;102888.91;5064565;28;19978;-50
2021/09/22 09:27:24;;;;;;;;;;;;;;;18.21;62.63;102890.31;5047347;28;20518;-49
2021/09/22 09:29:51;;;;;;;;;;;;;;;18.45;62.10;102888.81;5048763;28;19975;-43
2021/09/22 09:32:22;;;;;;;;;;;;;;;18.70;62.47;102888.88;5064202;28;19935;-43
2021/09/22 09:34:59;;;;;;;;;;;;;;;18.95;61.29;102886.38;5064847;28;19925;-42
2021/09/22 09:37:32;;;;;;;;;;;;;;;19.09;59.17;102886.28;5048941;28;19936;-45
2021/09/22 09:40:14;;;;;;;;;;;;;;;19.32;59.12;102891.81;5049197;28;19925;-41
2021/09/22 09:42:41;;;;;;;;;;;;;;;19.66;56.98;102889.41;5046940;28;20403;-42
2021/09/22 09:45:08;;;;;;;;;;;;;;;20.01;57.80;102888.72;5049051;28;19943;-41
2021/09/22 09:47:35;;;;;;;;;;;;;;;20.27;55.76;102876.09;5047681;28;19975;-45
2021/09/22 09:50:15;;;;;;;;;;;;;;;20.52;55.35;102871.56;5048044;28;19931;-45
2021/09/22 09:52:52;;;;;;;;;;;;;;;20.75;53.42;102875.19;5048087;28;19929;-47
2021/09/22 09:55:19;;;;;;;;;;;;;;;21.10;51.85;102867.13;5048392;28;20351;-43
2021/09/22 09:57:47;;;;;;;;;;;;;;;21.19;49.95;102862.88;5062125;28;20303;-43
2021/09/22 10:00:14;;;;;;;;;;;;;;;21.12;50.80;102864.34;5047122;28;19978;-45
2021/09/22 10:02:41;;;;;;;;;;;;;;;20.94;50.29;102859.44;5048707;28;20361;-46
2021/09/22 10:05:08;;;;;;;;;;;;;;;21.14;49.23;102854.34;5048672;28;20040;-43
2021/09/22 10:07:35;;;;;;;;;;;;;;;21.37;49.30;102852.50;5063232;28;20023;-46
2021/09/22 10:10:03;;;;;;;;;;;;;;;21.67;49.36;102851.06;5048935;28;20019;-49
2021/09/22 10:12:30;;;;;;;;;;;;;;;21.96;50.06;102853.16;5062046;28;19931;-41
2021/09/22 10:14:56;;;;;;;;;;;;;;;21.60;47.73;102848.03;5064710;28;19928;-47
2021/09/22 10:17:23;;;;;;;;;;;;;;;21.80;47.99;102848.25;5052362;28;20141;-44
2021/09/22 10:19:50;;;;;;;;;;;;;;;22.06;48.58;102846.09;5052462;28;20009;-43
2021/09/22 10:22:17;;;;;;;;;;;;;;;22.12;47.58;102847.41;5051686;28;19929;-45
2021/09/22 10:24:44;;;;;;;;;;;;;;;22.28;48.02;102844.28;5052572;28;20276;-46
2021/09/22 10:27:14;;;;;;;;;;;;;;;22.40;48.38;102845.97;5065777;28;20410;-43
2021/09/22 10:29:51;;;;;;;;;;;;;;;22.79;48.55;102843.53;5052765;28;19952;-47
2021/09/22 10:32:37;;;;;;;;;;;;;;;22.88;46.30;102839.22;5050686;28;20298;-45
2021/09/22 10:35:23;;;;;;;;;;;;;;;23.01;47.23;102844.34;5051639;28;19971;-43
2021/09/22 10:37:49;;;;;;;;;;;;;;;23.22;46.21;102843.47;5051888;28;19936;-46
2021/09/22 10:40:17;;;;;;;;;;;;;;;23.61;46.47;102835.53;5067261;28;20372;-48
2021/09/22 10:42:44;;;;;;;;;;;;;;;23.81;46.79;102825.69;5049648;28;19936;-45
2021/09/22 10:45:18;;;;;;;;;;;;;;;24.10;45.04;102820.34;5051898;28;20485;-48
2021/09/22 10:47:45;;;;;;;;;;;;;;;24.22;44.58;102815.66;5052203;28;19925;-48
2021/09/22 10:50:13;;;;;;;;;;;;;;;24.63;43.87;102810.13;5050467;28;20458;-44
2021/09/22 10:52:40;;;;;;;;;;;;;;;24.74;43.54;102811.78;5051333;28;19982;-47
2021/09/22 10:55:12;;;;;;;;;;;;;;;24.93;42.83;102811.69;5067216;28;19924;-45
2021/09/22 10:57:39;;;;;;;;;;;;;;;24.85;42.46;102808.06;5049795;28;19924;-47
2021/09/22 11:00:18;;;;;;;;;;;;;;;25.09;43.14;102810.25;5052137;28;19925;-46
2021/09/22 11:02:46;;;;;;;;;;;;;;;25.21;42.73;102808.19;5067141;28;19929;-47
2021/09/22 11:05:14;;;;;;;;;;;;;;;25.13;42.84;102803.56;5049666;28;19929;-46
2021/09/22 11:07:53;;;;;;;;;;;;;;;24.63;41.71;102810.13;5066587;28;20437;-50
2021/09/22 11:10:41;;;;;;;;;;;;;;;24.93;42.53;102809.00;5050468;28;19975;-49
2021/09/22 11:13:23;;;;;;;;;;;;;;;24.58;42.26;102805.16;5049204;28;19959;-46
2021/09/22 11:15:50;;;;;;;;;;;;;;;24.74;43.08;102804.53;5051417;28;19925;-47
2021/09/22 11:18:20;;;;;;;;;;;;;;;25.43;41.86;102802.41;5051033;28;20031;-53
2021/09/22 11:20:56;;;;;;;;;;;;;;;25.36;42.15;102792.41;5051297;28;19940;-49
2021/09/22 11:23:23;;;;;;;;;;;;;;;25.56;40.02;102798.50;5065705;28;19947;-49
2021/09/22 11:25:50;;;;;;;;;;;;;;;25.87;40.50;102788.19;5066427;28;20545;-53
2021/09/22 11:28:16;;;;;;;;;;;;;;;25.94;40.13;102791.13;5047967;28;19975;-51
2021/09/22 11:30:45;;;;;;;;;;;;;;;26.20;39.00;102787.66;5050810;28;19929;-49
2021/09/22 11:33:18;;;;;;;;;;;;;;;26.21;39.18;102789.38;5050730;28;19966;-53
2021/09/22 11:35:44;;;;;;;;;;;;;;;26.52;38.31;102780.78;5066144;28;19947;-47
2021/09/22 11:38:11;;;;;;;;;;;;;;;26.48;38.89;102789.19;5050143;28;20304;-50
2021/09/22 11:40:38;;;;;;;;;;;;;;;26.70;37.88;102783.44;5051426;28;19936;-49
2021/09/22 11:43:06;;;;;;;;;;;;;;;26.17;38.28;102777.19;5048594;28;19937;-50
2021/09/22 11:45:44;;;;;;;;;;;;;;;26.77;37.78;102779.13;5050790;28;20437;-51
2021/09/22 11:48:11;;;;;;;;;;;;;;;25.92;38.12;102775.13;5049847;28;20037;-48
2021/09/22 11:50:42;;;;;;;;;;;;;;;26.53;38.17;102767.13;5049603;28;19971;-49
2021/09/22 11:53:10;;;;;;;;;;;;;;;27.23;36.47;102768.84;5048629;28;20315;-49
2021/09/22 11:55:37;;;;;;;;;;;;;;;26.96;36.40;102768.06;5066074;28;19963;-49
2021/09/22 11:58:04;;;;;;;;;;;;;;;26.97;37.43;102772.47;5048908;28;19959;-53
2021/09/22 12:00:31;;;;;;;;;;;;;;;27.19;36.11;102762.06;5050804;28;19987;-50
2021/09/22 12:02:58;;;;;;;;;;;;;;;27.02;35.72;102747.66;5050076;28;19925;-44
2021/09/22 12:05:26;;;;;;;;;;;;;;;27.38;36.38;102744.75;5049753;28;20398;-49
2021/09/22 12:07:53;;;;;;;;;;;;;;;27.73;35.71;102733.81;5050604;28;20285;-50
2021/09/22 12:10:21;;;;;;;;;;;;;;;27.92;35.65;102732.63;5065846;28;20038;-51
2021/09/22 12:12:47;;;;;;;;;;;;;;;27.74;35.77;102732.78;5064721;28;19978;-49
2021/09/22 12:15:14;;;;;;;;;;;;;;;28.34;34.42;102728.84;5050706;28;19932;-48
2021/09/22 12:17:41;;;;;;;;;;;;;;;28.15;34.46;102721.97;5051068;28;19925;-50
2021/09/22 12:20:09;;;;;;;;;;;;;;;27.97;34.33;102722.16;5051369;28;19970;-48
2021/09/22 12:22:36;;;;;;;;;;;;;;;28.28;35.64;102718.75;5065378;28;19952;-48
2021/09/22 12:25:03;;;;;;;;;;;;;;;28.41;33.97;102719.03;5051174;28;20343;-50
2021/09/22 12:27:30;;;;;;;;;;;;;;;28.10;33.13;102708.13;5047829;28;19925;-49
2021/09/22 12:30:04;;;;;;;;;;;;;;;28.24;34.99;102701.19;5066138;28;19932;-48
2021/09/22 12:32:32;;;;;;;;;;;;;;;28.71;33.58;102700.34;5050402;28;20705;-48
2021/09/22 12:35:03;;;;;;;;;;;;;;;28.97;32.66;102701.91;5050825;28;19924;-47
2021/09/22 12:37:30;;;;;;;;;;;;;;;28.79;32.90;102697.59;5049362;28;19991;-49
2021/09/22 12:40:22;;;;;;;;;;;;;;;28.97;32.45;102694.63;5050674;28;19974;-49
2021/09/22 12:42:49;;;;;;;;;;;;;;;28.72;32.46;102693.91;5048091;28;19925;-52